Time;durP1;ratioP1;P1;durP2;ratioP2;P2;SDS_P1;SDS_P2;PMS_P1;PMS_P2;Temp;Humidity;BMP_temperature;BMP_pressure;BME280_temperature;BME280_humidity;BME280_pressure;Samples;Min_cycle;Max_cycle;Signal;HPM_P1;HPM_P2
2022/02/22 00:00:46;;;;;;;4.53;2.57;;;5.20;99.90;;;;;;5061073;28;20174;-55
2022/02/22 00:03:12;;;;;;;3.37;1.90;;;5.20;99.90;;;;;;5057574;28;20197;-54
2022/02/22 00:05:38;;;;;;;3.95;1.77;;;5.20;99.90;;;;;;5051305;28;20186;-52
2022/02/22 00:08:07;;;;;;;4.67;2.20;;;5.20;99.90;;;;;;5056596;28;20206;-54
2022/02/22 00:10:33;;;;;;;3.60;1.90;;;5.20;99.90;;;;;;5070603;28;20459;-54
2022/02/22 00:12:58;;;;;;;2.60;1.90;;;5.20;99.90;;;;;;5060717;28;20217;-50
2022/02/22 00:15:24;;;;;;;3.00;2.20;;;5.20;99.90;;;;;;5065878;28;20262;-53
2022/02/22 00:17:49;;;;;;;3.60;2.20;;;5.20;99.90;;;;;;5053435;28;20182;-55
2022/02/22 00:20:16;;;;;;;2.93;1.60;;;5.20;99.90;;;;;;5052210;28;20186;-49
2022/02/22 00:22:42;;;;;;;3.40;1.85;;;5.20;99.90;;;;;;5053219;28;20539;-56
2022/02/22 00:25:12;;;;;;;7.37;2.17;;;5.20;99.90;;;;;;5050551;28;20183;-54
2022/02/22 00:27:42;;;;;;;4.05;2.15;;;5.30;99.90;;;;;;5052593;28;20563;-57
2022/02/22 00:30:09;;;;;;;3.30;2.00;;;5.40;99.90;;;;;;5052273;28;20516;-54
2022/02/22 00:32:35;;;;;;;5.45;1.80;;;5.40;99.90;;;;;;5057326;28;20174;-54
2022/02/22 00:35:00;;;;;;;5.43;2.00;;;5.40;99.90;;;;;;5053677;28;20591;-55
2022/02/22 00:37:26;;;;;;;4.70;1.33;;;5.50;99.90;;;;;;5055127;28;20530;-52
2022/02/22 00:39:51;;;;;;;2.23;1.40;;;5.60;99.90;;;;;;5050145;28;20596;-56
2022/02/22 00:42:17;;;;;;;4.20;1.70;;;5.60;99.90;;;;;;5051006;28;20167;-57
2022/02/22 00:44:43;;;;;;;2.87;2.13;;;5.60;99.90;;;;;;5052127;28;20257;-54
2022/02/22 00:47:09;;;;;;;2.77;1.70;;;5.60;99.90;;;;;;5051620;28;20616;-54
2022/02/22 00:49:34;;;;;;;4.87;1.70;;;5.70;99.90;;;;;;5049328;28;20424;-55
2022/02/22 00:52:01;;;;;;;2.90;1.80;;;5.80;99.90;;;;;;5050481;28;20633;-54
2022/02/22 00:54:26;;;;;;;1.73;1.63;;;5.80;99.90;;;;;;5051877;28;20258;-57
2022/02/22 00:56:52;;;;;;;5.70;1.87;;;5.80;99.90;;;;;;5050905;28;20293;-54
2022/02/22 00:59:17;;;;;;;1.77;1.40;;;5.80;99.90;;;;;;5055947;28;20217;-55
2022/02/22 01:01:43;;;;;;;2.30;1.43;;;5.90;99.90;;;;;;5046631;28;20997;-53
2022/02/22 01:04:08;;;;;;;2.70;1.80;;;5.80;99.90;;;;;;5052898;28;20190;-57
2022/02/22 01:06:34;;;;;;;3.93;1.70;;;5.80;99.90;;;;;;5051509;28;20649;-55
2022/02/22 01:08:59;;;;;;;4.37;1.97;;;5.80;99.90;;;;;;5051319;28;20189;-61
2022/02/22 01:11:25;;;;;;;2.10;1.50;;;5.70;99.90;;;;;;5056511;28;20316;-55
2022/02/22 01:13:51;;;;;;;3.43;1.80;;;5.60;99.90;;;;;;5043129;28;20220;-53
2022/02/22 01:16:16;;;;;;;2.80;1.70;;;5.60;99.90;;;;;;5053740;28;20443;-56
2022/02/22 01:18:42;;;;;;;3.60;1.67;;;5.60;99.90;;;;;;5057786;28;20329;-56
2022/02/22 01:21:07;;;;;;;6.00;1.47;;;5.50;99.90;;;;;;5052128;28;20193;-55
2022/02/22 01:23:33;;;;;;;1.77;1.50;;;5.50;99.90;;;;;;5049688;28;20190;-53
2022/02/22 01:26:00;;;;;;;4.20;1.90;;;5.50;99.90;;;;;;5052522;28;20621;-57
2022/02/22 01:28:25;;;;;;;4.10;2.40;;;5.60;99.90;;;;;;5051000;28;20689;-55
2022/02/22 01:30:51;;;;;;;2.30;1.80;;;5.50;99.90;;;;;;5052313;28;20269;-54
2022/02/22 01:33:17;;;;;;;4.10;1.50;;;5.50;99.90;;;;;;5070830;28;20400;-57
2022/02/22 01:35:42;;;;;;;4.47;1.97;;;5.50;99.90;;;;;;5057288;28;20178;-56
2022/02/22 01:38:08;;;;;;;2.03;1.57;;;5.50;99.90;;;;;;5049903;28;20201;-55
2022/02/22 01:40:34;;;;;;;3.17;1.97;;;5.50;99.90;;;;;;5049993;28;20177;-51
2022/02/22 01:42:59;;;;;;;3.87;1.60;;;5.50;99.90;;;;;;5049996;28;20224;-52
2022/02/22 01:45:25;;;;;;;3.23;1.60;;;5.50;99.90;;;;;;5049432;28;20186;-54
2022/02/22 01:47:51;;;;;;;2.90;1.77;;;5.50;99.90;;;;;;5050292;28;20241;-54
2022/02/22 01:50:16;;;;;;;2.70;1.47;;;5.50;99.90;;;;;;5055627;28;20190;-55
2022/02/22 01:52:42;;;;;;;2.47;1.70;;;5.50;99.90;;;;;;5061922;28;20234;-55
2022/02/22 01:55:08;;;;;;;1.50;1.40;;;5.50;99.90;;;;;;5063124;28;20543;-55
2022/02/22 01:57:34;;;;;;;2.22;1.58;;;5.50;99.90;;;;;;5063638;28;20182;-54
2022/02/22 02:00:04;;;;;;;2.33;1.60;;;5.50;99.90;;;;;;5057856;28;20208;-53
2022/02/22 02:02:30;;;;;;;3.10;1.70;;;5.50;99.90;;;;;;5063550;28;20189;-57
2022/02/22 02:04:56;;;;;;;1.50;1.40;;;5.50;99.90;;;;;;5059958;28;20203;-52
2022/02/22 02:07:21;;;;;;;3.17;1.43;;;5.40;99.90;;;;;;5052550;28;20202;-55
2022/02/22 02:09:47;;;;;;;4.33;1.40;;;5.50;99.90;;;;;;5046204;28;20212;-54
2022/02/22 02:12:12;;;;;;;2.10;1.70;;;5.50;99.90;;;;;;5060884;28;20181;-53
2022/02/22 02:14:38;;;;;;;2.63;2.00;;;5.50;99.90;;;;;;5057982;28;20223;-54
2022/02/22 02:17:03;;;;;;;2.00;1.60;;;5.50;99.90;;;;;;5054252;28;20256;-50
2022/02/22 02:19:29;;;;;;;2.67;2.23;;;5.40;99.90;;;;;;5054916;28;20719;-53
2022/02/22 02:22:01;;;;;;;3.40;1.83;;;5.50;99.90;;;;;;5059754;28;20672;-54
2022/02/22 02:24:28;;;;;;;2.58;2.38;;;5.40;99.90;;;;;;5049417;28;20269;-56
2022/02/22 02:26:55;;;;;;;2.08;1.88;;;5.40;99.90;;;;;;5049991;28;20194;-55
2022/02/22 02:29:23;;;;;;;2.60;1.92;;;5.40;99.90;;;;;;5049178;28;20178;-54
2022/02/22 02:31:51;;;;;;;2.30;2.05;;;5.40;99.90;;;;;;5049904;28;20651;-54
2022/02/22 02:34:20;;;;;;;5.95;1.80;;;5.40;99.90;;;;;;5049901;28;20579;-54
2022/02/22 02:36:46;;;;;;;1.85;1.70;;;5.40;99.90;;;;;;5059345;28;20189;-54
2022/02/22 02:39:12;;;;;;;3.20;2.17;;;5.40;99.90;;;;;;5056306;28;20648;-57
2022/02/22 02:41:39;;;;;;;1.92;1.38;;;5.40;99.90;;;;;;5057427;28;20188;-52
2022/02/22 02:44:09;;;;;;;3.70;1.60;;;5.40;99.90;;;;;;5051874;28;20602;-53
2022/02/22 02:46:35;;;;;;;2.30;1.63;;;5.40;99.90;;;;;;5068614;28;20537;-53
2022/02/22 02:49:01;;;;;;;2.30;1.63;;;5.40;99.90;;;;;;5055249;28;20193;-50
2022/02/22 02:51:27;;;;;;;2.83;1.70;;;5.40;99.90;;;;;;5058052;28;20561;-56
2022/02/22 02:53:54;;;;;;;2.50;1.70;;;5.40;99.90;;;;;;5057590;28;20263;-53
2022/02/22 02:56:22;;;;;;;1.63;1.50;;;5.40;99.90;;;;;;5044042;28;20668;-53
2022/02/22 02:58:53;;;;;;;1.98;1.45;;;5.40;99.90;;;;;;5046234;28;20536;-50
2022/02/22 03:01:20;;;;;;;1.95;1.30;;;5.40;99.90;;;;;;5044536;28;20183;-54
2022/02/22 03:03:46;;;;;;;2.33;1.40;;;5.40;99.90;;;;;;5049738;28;20191;-56
2022/02/22 03:06:12;;;;;;;2.87;1.50;;;5.40;99.90;;;;;;5058175;28;20210;-62
2022/02/22 03:08:37;;;;;;;1.87;1.20;;;5.40;99.90;;;;;;5052568;28;20510;-51
2022/02/22 03:11:03;;;;;;;2.40;1.17;;;5.40;99.90;;;;;;5067914;28;20431;-55
2022/02/22 03:13:28;;;;;;;3.70;1.40;;;5.40;99.90;;;;;;5056270;28;20182;-52
2022/02/22 03:15:54;;;;;;;3.00;1.60;;;5.40;99.90;;;;;;5050399;28;20186;-56
2022/02/22 03:18:19;;;;;;;2.60;1.20;;;5.40;99.90;;;;;;5051987;28;20552;-54
2022/02/22 03:20:45;;;;;;;2.47;1.40;;;5.40;99.90;;;;;;5057139;28;20261;-53
2022/02/22 03:23:11;;;;;;;5.43;1.83;;;5.40;99.90;;;;;;5066537;28;20190;-58
2022/02/22 03:25:36;;;;;;;2.73;1.40;;;5.40;99.90;;;;;;5057227;28;20661;-55
2022/02/22 03:28:06;;;;;;;4.50;1.33;;;5.40;99.90;;;;;;5051909;28;20288;-56
2022/02/22 03:30:32;;;;;;;2.95;1.58;;;5.40;99.90;;;;;;5055030;28;20847;-55
2022/02/22 03:32:58;;;;;;;5.32;1.40;;;5.40;99.90;;;;;;5051696;28;20518;-52
2022/02/22 03:35:24;;;;;;;4.25;1.60;;;5.40;99.90;;;;;;5065494;28;20185;-54
2022/02/22 03:37:50;;;;;;;1.50;1.40;;;5.40;99.90;;;;;;5067228;28;20643;-56
2022/02/22 03:40:16;;;;;;;2.50;1.30;;;5.40;99.90;;;;;;5072690;28;20408;-54
2022/02/22 03:42:42;;;;;;;4.15;1.70;;;5.40;99.90;;;;;;5061917;28;20217;-56
2022/02/22 03:45:10;;;;;;;2.20;1.63;;;5.40;99.90;;;;;;5052713;28;20210;-56
2022/02/22 03:47:36;;;;;;;3.58;1.77;;;5.40;99.90;;;;;;5059484;28;20275;-60
2022/02/22 03:50:03;;;;;;;2.00;1.42;;;5.40;99.90;;;;;;5062177;28;20179;-53
2022/02/22 03:52:30;;;;;;;2.15;1.40;;;5.30;99.90;;;;;;5060174;28;20235;-55
2022/02/22 03:54:56;;;;;;;2.33;1.67;;;5.30;99.90;;;;;;5057540;28;20185;-57
2022/02/22 03:57:21;;;;;;;6.70;1.60;;;5.30;99.90;;;;;;5046273;28;20208;-54
2022/02/22 03:59:47;;;;;;;1.90;1.40;;;5.30;99.90;;;;;;5052265;28;20554;-57
2022/02/22 04:02:13;;;;;;;2.50;1.77;;;5.40;99.90;;;;;;5067648;28;20185;-53
2022/02/22 04:04:38;;;;;;;2.50;1.60;;;5.40;99.90;;;;;;5058804;28;20289;-54
2022/02/22 04:07:04;;;;;;;1.50;1.40;;;5.40;99.90;;;;;;5056830;28;20206;-58
2022/02/22 04:09:30;;;;;;;2.33;1.33;;;5.40;99.90;;;;;;5059305;28;20200;-56
2022/02/22 04:11:55;;;;;;;2.37;1.67;;;5.40;99.90;;;;;;5063281;28;20197;-55
2022/02/22 04:14:21;;;;;;;2.43;1.80;;;5.50;99.90;;;;;;5057579;28;20264;-57
2022/02/22 04:16:46;;;;;;;2.27;1.60;;;5.50;99.90;;;;;;5065650;28;20178;-55
2022/02/22 04:19:13;;;;;;;4.63;1.90;;;5.50;99.90;;;;;;5053042;28;20321;-58
2022/02/22 04:21:39;;;;;;;3.33;1.90;;;5.50;99.90;;;;;;5051652;28;20182;-56
2022/02/22 04:24:05;;;;;;;2.97;2.20;;;5.50;99.90;;;;;;5050485;28;20194;-55
2022/02/22 04:26:31;;;;;;;2.17;1.80;;;5.50;99.90;;;;;;5063060;28;20472;-55
2022/02/22 04:29:00;;;;;;;3.53;2.00;;;5.60;99.90;;;;;;5051697;28;20440;-56
2022/02/22 04:31:26;;;;;;;3.80;1.90;;;5.60;99.90;;;;;;5049441;28;20266;-52
2022/02/22 04:33:51;;;;;;;2.80;2.00;;;5.50;99.90;;;;;;5054934;28;20266;-54
2022/02/22 04:36:17;;;;;;;5.27;1.87;;;5.30;99.90;;;;;;5061705;28;20264;-54
2022/02/22 04:38:42;;;;;;;1.47;1.37;;;5.30;99.90;;;;;;5051599;28;20186;-53
2022/02/22 04:41:08;;;;;;;1.77;1.67;;;5.30;99.90;;;;;;5059204;28;20321;-56
2022/02/22 04:43:33;;;;;;;2.10;1.70;;;5.20;99.90;;;;;;5058959;28;20189;-54
2022/02/22 04:45:59;;;;;;;2.07;1.67;;;5.10;99.90;;;;;;5051879;28;20186;-54
2022/02/22 04:48:24;;;;;;;2.53;1.60;;;5.10;99.90;;;;;;5064201;28;20232;-62
2022/02/22 04:50:50;;;;;;;3.10;1.77;;;5.10;99.90;;;;;;5050640;28;20179;-61
2022/02/22 04:53:16;;;;;;;2.43;1.90;;;5.10;99.90;;;;;;5051067;28;20226;-56
2022/02/22 04:55:41;;;;;;;3.10;1.97;;;5.10;99.90;;;;;;5049357;28;20205;-62
2022/02/22 04:58:07;;;;;;;6.70;2.07;;;5.10;99.90;;;;;;5038917;28;20183;-52
2022/02/22 05:00:32;;;;;;;4.63;2.57;;;5.10;99.90;;;;;;5047422;28;20189;-56
2022/02/22 05:02:58;;;;;;;5.73;2.10;;;5.20;99.90;;;;;;5050738;28;20205;-54
2022/02/22 05:05:24;;;;;;;7.75;2.75;;;5.10;99.90;;;;;;5050927;28;20178;-52
2022/02/22 05:07:50;;;;;;;5.10;1.90;;;5.10;99.90;;;;;;5045665;28;20233;-55
2022/02/22 05:10:15;;;;;;;9.80;3.73;;;5.20;99.90;;;;;;5056563;28;20632;-56
2022/02/22 05:12:41;;;;;;;5.03;2.17;;;5.10;99.90;;;;;;5050330;28;20235;-56
2022/02/22 05:15:07;;;;;;;8.90;2.80;;;5.20;99.90;;;;;;5050798;28;20175;-57
2022/02/22 05:17:33;;;;;;;10.13;2.70;;;5.20;99.90;;;;;;5041072;28;20189;-57
2022/02/22 05:19:58;;;;;;;8.20;3.33;;;5.20;99.90;;;;;;5042918;28;20555;-57
2022/02/22 05:22:24;;;;;;;12.43;2.70;;;5.20;99.90;;;;;;5042484;28;20174;-56
2022/02/22 05:24:49;;;;;;;4.13;2.20;;;5.20;99.90;;;;;;5042577;28;20263;-56
2022/02/22 05:27:15;;;;;;;9.97;2.93;;;5.20;99.90;;;;;;5050014;28;20210;-55
2022/02/22 05:29:40;;;;;;;5.33;2.00;;;5.20;99.90;;;;;;5041871;28;20222;-56
2022/02/22 05:32:06;;;;;;;5.10;2.00;;;5.20;99.90;;;;;;5053115;28;20192;-57
2022/02/22 05:34:35;;;;;;;7.20;2.50;;;5.10;99.90;;;;;;5051592;28;20265;-58
2022/02/22 05:37:02;;;;;;;4.45;1.95;;;5.10;99.90;;;;;;5043151;28;20440;-56
2022/02/22 05:39:28;;;;;;;5.70;2.08;;;5.10;99.90;;;;;;5041762;28;20178;-55
2022/02/22 05:41:53;;;;;;;6.17;2.00;;;5.10;99.90;;;;;;5052054;28;20199;-54
2022/02/22 05:44:19;;;;;;;6.70;2.10;;;5.10;99.90;;;;;;5049847;28;20499;-56
2022/02/22 05:46:44;;;;;;;7.93;2.30;;;5.10;99.90;;;;;;5062316;28;20240;-56
2022/02/22 05:49:10;;;;;;;7.93;2.90;;;5.00;99.90;;;;;;5047453;28;20212;-55
2022/02/22 05:51:35;;;;;;;7.17;2.80;;;5.00;99.90;;;;;;5048494;28;20645;-55
2022/02/22 05:54:01;;;;;;;5.40;2.30;;;5.10;99.90;;;;;;5058930;28;20228;-56
2022/02/22 05:56:26;;;;;;;6.60;2.10;;;5.00;99.90;;;;;;5057146;28;20178;-54
2022/02/22 05:58:52;;;;;;;10.33;2.90;;;5.00;99.90;;;;;;5050772;28;20667;-56
2022/02/22 06:01:17;;;;;;;7.20;2.80;;;5.10;99.90;;;;;;5050516;28;20252;-55
2022/02/22 06:03:43;;;;;;;6.33;3.10;;;5.10;99.90;;;;;;5058740;28;20189;-57
2022/02/22 06:06:09;;;;;;;8.47;3.10;;;5.10;99.90;;;;;;5069844;28;20197;-58
2022/02/22 06:08:34;;;;;;;5.77;2.87;;;5.10;99.90;;;;;;5058726;28;20177;-54
2022/02/22 06:11:00;;;;;;;5.87;2.80;;;5.10;99.90;;;;;;5069993;28;20498;-55
2022/02/22 06:13:25;;;;;;;5.87;2.77;;;5.10;99.90;;;;;;5053356;28;20182;-57
2022/02/22 06:15:51;;;;;;;8.37;2.60;;;5.00;99.90;;;;;;5048855;28;20194;-57
2022/02/22 06:18:16;;;;;;;7.07;2.80;;;5.10;99.90;;;;;;5050120;28;20189;-53
2022/02/22 06:20:43;;;;;;;9.23;3.20;;;5.10;99.90;;;;;;5062592;28;20193;-56
2022/02/22 06:23:09;;;;;;;5.75;2.47;;;5.10;99.90;;;;;;5067220;28;20173;-55
2022/02/22 06:25:34;;;;;;;7.97;2.87;;;5.20;99.90;;;;;;5064829;28;20620;-56
2022/02/22 06:28:00;;;;;;;10.07;3.23;;;5.20;99.90;;;;;;5059508;28;20248;-57
2022/02/22 06:30:26;;;;;;;10.43;3.33;;;5.20;99.90;;;;;;5052083;28;20184;-54
2022/02/22 06:32:54;;;;;;;5.30;2.75;;;5.30;99.90;;;;;;5057860;28;20174;-55
2022/02/22 06:35:20;;;;;;;7.00;3.03;;;5.30;99.90;;;;;;5057526;28;20185;-54
2022/02/22 06:37:45;;;;;;;7.60;2.55;;;5.30;99.90;;;;;;5054243;28;20190;-58
2022/02/22 06:40:11;;;;;;;9.10;2.70;;;5.30;99.90;;;;;;5071504;28;20204;-59
2022/02/22 06:42:38;;;;;;;8.70;3.43;;;5.30;99.90;;;;;;5063304;28;20925;-55
2022/02/22 06:45:05;;;;;;;7.80;3.00;;;5.30;99.90;;;;;;5052893;28;20192;-54
2022/02/22 06:47:30;;;;;;;4.78;2.58;;;5.20;99.90;;;;;;5068995;28;20233;-55
2022/02/22 06:49:56;;;;;;;5.80;2.73;;;5.20;99.90;;;;;;5072996;28;20691;-55
2022/02/22 06:52:23;;;;;;;5.37;3.10;;;5.20;99.90;;;;;;5072994;28;20307;-57
2022/02/22 06:54:49;;;;;;;13.20;3.40;;;5.20;99.90;;;;;;5057139;28;20177;-55
2022/02/22 06:57:14;;;;;;;8.23;2.90;;;5.10;99.90;;;;;;5057791;28;20181;-56
2022/02/22 06:59:40;;;;;;;9.00;2.93;;;5.20;99.90;;;;;;5056978;28;20194;-52
2022/02/22 07:02:06;;;;;;;6.30;2.63;;;5.10;99.90;;;;;;5062444;28;20431;-56
2022/02/22 07:04:32;;;;;;;8.43;2.80;;;5.10;99.90;;;;;;5058085;28;20305;-54
2022/02/22 07:06:59;;;;;;;7.70;2.77;;;5.10;99.90;;;;;;5063312;28;20205;-53
2022/02/22 07:09:24;;;;;;;7.20;2.72;;;5.10;99.90;;;;;;5054990;28;20176;-54
2022/02/22 07:11:50;;;;;;;6.43;2.90;;;5.30;99.90;;;;;;5068571;28;20190;-55
2022/02/22 07:14:15;;;;;;;8.63;3.27;;;5.30;99.90;;;;;;5054914;28;20571;-51
2022/02/22 07:16:41;;;;;;;4.07;2.90;;;5.40;99.90;;;;;;5052184;28;20261;-53
2022/02/22 07:19:06;;;;;;;6.63;2.83;;;5.40;99.90;;;;;;5050879;28;20185;-57
2022/02/22 07:21:32;;;;;;;10.43;3.80;;;5.50;99.90;;;;;;5051904;28;20170;-51
2022/02/22 07:23:57;;;;;;;8.97;3.33;;;5.50;99.90;;;;;;5051557;28;20527;-54
2022/02/22 07:26:23;;;;;;;6.83;2.60;;;5.60;99.90;;;;;;5050851;28;20202;-53
2022/02/22 07:28:48;;;;;;;8.33;3.00;;;5.60;99.90;;;;;;5053311;28;20162;-52
2022/02/22 07:31:14;;;;;;;4.70;2.60;;;5.60;99.90;;;;;;5051861;28;20579;-53
2022/02/22 07:33:40;;;;;;;5.10;2.87;;;5.60;99.90;;;;;;5056685;28;20183;-52
2022/02/22 07:36:06;;;;;;;5.33;2.60;;;5.60;99.90;;;;;;5063658;28;20185;-53
2022/02/22 07:38:32;;;;;;;8.70;3.47;;;5.60;99.90;;;;;;5039510;28;20421;-53
2022/02/22 07:40:58;;;;;;;8.10;2.78;;;5.70;99.90;;;;;;5063816;28;20189;-51
2022/02/22 07:43:24;;;;;;;13.30;3.33;;;5.70;99.90;;;;;;5056618;28;20186;-49
2022/02/22 07:45:49;;;;;;;4.73;2.30;;;5.70;99.90;;;;;;5061901;28;20186;-53
2022/02/22 07:48:15;;;;;;;10.17;3.27;;;5.80;99.90;;;;;;5058666;28;20221;-51
2022/02/22 07:50:40;;;;;;;6.97;3.20;;;5.80;99.90;;;;;;5054061;28;20650;-55
2022/02/22 07:53:06;;;;;;;6.50;2.70;;;5.90;99.90;;;;;;5045568;28;20230;-55
2022/02/22 07:55:32;;;;;;;7.53;2.93;;;5.80;99.90;;;;;;5048261;28;20269;-54
2022/02/22 07:57:57;;;;;;;10.37;3.10;;;6.00;99.90;;;;;;5053041;28;20182;-53
2022/02/22 08:00:23;;;;;;;4.73;2.30;;;6.00;99.90;;;;;;5050944;28;20186;-53
2022/02/22 08:02:48;;;;;;;5.67;2.80;;;5.90;99.90;;;;;;5049031;28;20195;-52
2022/02/22 08:05:14;;;;;;;11.23;3.37;;;5.90;99.90;;;;;;5051540;28;20253;-59
2022/02/22 08:07:39;;;;;;;5.87;2.93;;;5.90;99.90;;;;;;5061961;28;20683;-54
2022/02/22 08:10:07;;;;;;;10.90;3.30;;;5.90;99.90;;;;;;5053093;28;20241;-56
2022/02/22 08:12:33;;;;;;;7.43;3.28;;;5.90;99.90;;;;;;5052511;28;20191;-51
2022/02/22 08:14:59;;;;;;;7.87;3.20;;;6.00;99.90;;;;;;5052518;28;20177;-53
2022/02/22 08:17:25;;;;;;;10.88;2.80;;;5.90;99.90;;;;;;5051582;28;20413;-58
2022/02/22 08:19:51;;;;;;;7.13;3.23;;;5.80;99.90;;;;;;5050141;28;20194;-51
2022/02/22 08:22:16;;;;;;;7.57;3.30;;;5.90;99.90;;;;;;5052123;28;20189;-57
2022/02/22 08:24:42;;;;;;;8.40;2.83;;;5.80;99.90;;;;;;5064744;28;20184;-52
2022/02/22 08:27:07;;;;;;;7.20;3.00;;;5.80;99.90;;;;;;5064375;28;20204;-51
2022/02/22 08:29:33;;;;;;;10.33;2.43;;;5.90;99.90;;;;;;5067538;28;20632;-54
2022/02/22 08:31:59;;;;;;;7.93;3.67;;;5.80;99.90;;;;;;5064028;28;20186;-54
2022/02/22 08:34:24;;;;;;;10.87;3.47;;;5.90;99.90;;;;;;5050948;28;20193;-58
2022/02/22 08:36:50;;;;;;;7.80;3.90;;;5.80;99.90;;;;;;5051403;28;20551;-56
2022/02/22 08:39:16;;;;;;;11.43;2.97;;;5.80;99.90;;;;;;5051314;28;20189;-53
2022/02/22 08:41:42;;;;;;;7.80;3.23;;;5.80;99.90;;;;;;5050882;28;20281;-57
2022/02/22 08:44:10;;;;;;;6.47;3.15;;;5.90;99.90;;;;;;5052170;28;20562;-55
2022/02/22 08:46:36;;;;;;;8.18;3.58;;;5.80;99.90;;;;;;5051068;28;20197;-58
2022/02/22 08:49:01;;;;;;;6.95;2.95;;;5.90;99.90;;;;;;5051861;28;20242;-57
2022/02/22 08:51:27;;;;;;;12.90;3.70;;;5.90;99.90;;;;;;5051683;28;20269;-54
2022/02/22 08:53:52;;;;;;;9.60;3.53;;;5.90;99.90;;;;;;5049700;28;20237;-56
2022/02/22 08:56:18;;;;;;;8.57;3.87;;;6.00;99.90;;;;;;5050339;28;20171;-57
2022/02/22 08:58:44;;;;;;;7.93;2.70;;;6.10;99.90;;;;;;5050020;28;20198;-58
2022/02/22 09:01:09;;;;;;;7.80;2.83;;;6.20;99.90;;;;;;5049536;28;20661;-59
2022/02/22 09:03:35;;;;;;;7.10;3.23;;;6.30;99.90;;;;;;5050937;28;20224;-57
2022/02/22 09:06:01;;;;;;;8.00;3.73;;;6.50;99.90;;;;;;5049930;28;20777;-63
2022/02/22 09:08:27;;;;;;;8.67;4.60;;;6.80;99.90;;;;;;5050242;28;20198;-54
2022/02/22 09:10:52;;;;;;;11.37;3.73;;;6.90;99.90;;;;;;5051476;28;20285;-54
2022/02/22 09:13:18;;;;;;;11.60;3.63;;;7.10;99.90;;;;;;5050989;28;20511;-53
2022/02/22 09:15:44;;;;;;;7.43;4.00;;;7.20;99.90;;;;;;5049668;28;20268;-51
2022/02/22 09:18:10;;;;;;;10.17;4.43;;;7.10;99.90;;;;;;5048032;28;20178;-53
2022/02/22 09:20:36;;;;;;;11.07;3.70;;;7.00;99.90;;;;;;5049346;28;20415;-55
2022/02/22 09:23:02;;;;;;;9.80;3.80;;;7.00;99.90;;;;;;5069848;28;20423;-53
2022/02/22 09:25:32;;;;;;;12.83;5.77;;;6.90;99.90;;;;;;5064338;28;20444;-57
2022/02/22 09:27:59;;;;;;;12.35;5.07;;;6.90;99.90;;;;;;5054626;28;20867;-55
2022/02/22 09:30:25;;;;;;;14.80;3.67;;;7.00;99.90;;;;;;5057762;28;20551;-55
2022/02/22 09:32:51;;;;;;;9.80;3.90;;;7.00;99.90;;;;;;5067959;28;20193;-58
2022/02/22 09:35:22;;;;;;;7.10;3.33;;;6.90;99.90;;;;;;5069986;28;20779;-56
2022/02/22 09:37:47;;;;;;;8.35;4.05;;;6.80;99.90;;;;;;5064926;28;20594;-60
2022/02/22 09:40:14;;;;;;;4.40;3.03;;;6.80;99.90;;;;;;5060459;28;20173;-56
2022/02/22 09:42:41;;;;;;;8.10;3.70;;;6.90;99.90;;;;;;5066127;28;20189;-55
2022/02/22 09:45:08;;;;;;;6.50;3.80;;;6.80;99.90;;;;;;5056437;28;20541;-52
2022/02/22 09:47:34;;;;;;;8.57;4.30;;;6.90;99.90;;;;;;5049428;28;20210;-56
2022/02/22 09:50:00;;;;;;;5.22;3.45;;;6.90;99.90;;;;;;5068341;28;20273;-58
2022/02/22 09:52:26;;;;;;;7.95;4.72;;;6.90;99.90;;;;;;5054677;28;20237;-58
2022/02/22 09:54:51;;;;;;;5.83;3.23;;;6.80;99.90;;;;;;5062420;28;20186;-55
2022/02/22 09:57:17;;;;;;;8.20;4.07;;;6.80;99.90;;;;;;5050441;28;20189;-56
2022/02/22 09:59:43;;;;;;;7.07;4.57;;;6.80;99.90;;;;;;5048923;28;20184;-57
2022/02/22 10:02:09;;;;;;;7.80;3.85;;;6.70;99.90;;;;;;5058380;28;20644;-58
2022/02/22 10:05:10;;;;;;;7.70;3.80;;;6.70;99.90;;;;;;5056113;28;20186;-55
2022/02/22 10:07:59;;;;;;;14.05;4.55;;;6.70;99.90;;;;;;5046315;28;20456;-55
2022/02/22 10:10:35;;;;;;;6.22;3.67;;;6.80;99.90;;;;;;5034766;28;20178;-57
2022/02/22 10:13:01;;;;;;;9.52;4.05;;;6.70;99.90;;;;;;5050801;28;20522;-58
2022/02/22 10:15:27;;;;;;;7.65;3.33;;;6.70;99.90;;;;;;5061965;28;20171;-58
2022/02/22 10:17:53;;;;;;;6.37;3.63;;;6.80;99.90;;;;;;5061696;28;20193;-57
2022/02/22 10:20:19;;;;;;;5.80;3.47;;;6.90;99.90;;;;;;5049453;28;20185;-58
2022/02/22 10:22:53;;;;;;;11.63;4.10;;;6.80;99.90;;;;;;5049851;28;20189;-58
2022/02/22 10:25:20;;;;;;;6.85;4.15;;;6.90;99.90;;;;;;5062481;28;20761;-53
2022/02/22 10:27:49;;;;;;;7.82;3.83;;;6.90;99.90;;;;;;5050858;28;20263;-57
2022/02/22 10:30:40;;;;;;;8.13;4.07;;;6.90;99.90;;;;;;5053448;28;20178;-58
2022/02/22 10:33:13;;;;;;;7.28;3.85;;;6.90;99.90;;;;;;5048671;28;20182;-58
2022/02/22 10:35:40;;;;;;;8.40;3.78;;;6.90;99.90;;;;;;5049390;28;20169;-55
2022/02/22 10:38:12;;;;;;;6.03;3.90;;;6.90;99.90;;;;;;5048211;28;20205;-58
2022/02/22 10:40:40;;;;;;;7.40;4.25;;;6.90;99.90;;;;;;5063807;28;20183;-58
2022/02/22 10:43:06;;;;;;;12.20;4.00;;;6.80;99.90;;;;;;5058803;28;20567;-58
2022/02/22 10:45:31;;;;;;;10.53;3.77;;;6.80;99.90;;;;;;5049246;28;20221;-58
2022/02/22 10:47:57;;;;;;;9.87;3.70;;;7.00;99.90;;;;;;5068841;28;20237;-63
2022/02/22 10:50:31;;;;;;;8.30;4.10;;;7.10;99.90;;;;;;5054338;28;20645;-55
2022/02/22 10:52:57;;;;;;;11.13;4.07;;;6.90;99.90;;;;;;5067705;28;20456;-57
2022/02/22 10:55:23;;;;;;;7.32;3.60;;;7.00;99.90;;;;;;5064351;28;20603;-59
2022/02/22 10:57:49;;;;;;;6.43;3.35;;;7.00;99.90;;;;;;5069683;28;20197;-57
2022/02/22 11:00:15;;;;;;;9.50;3.37;;;7.10;99.90;;;;;;5048577;28;20179;-57
2022/02/22 11:02:45;;;;;;;8.23;3.22;;;7.20;99.90;;;;;;5049279;28;20197;-58
2022/02/22 11:05:13;;;;;;;8.95;3.95;;;7.30;99.90;;;;;;5045635;28;20178;-56
2022/02/22 11:07:39;;;;;;;8.20;3.97;;;7.40;99.70;;;;;;5056518;28;20288;-57
2022/02/22 11:10:08;;;;;;;5.70;2.97;;;7.40;99.90;;;;;;5065267;28;20277;-57
2022/02/22 11:12:34;;;;;;;5.45;3.75;;;7.50;99.30;;;;;;5068840;28;20261;-58
2022/02/22 11:15:08;;;;;;;9.17;4.00;;;7.60;99.40;;;;;;5068238;28;20173;-58
2022/02/22 11:17:48;;;;;;;11.32;4.35;;;7.50;98.20;;;;;;5059484;28;20914;-54
2022/02/22 11:20:28;;;;;;;7.88;3.75;;;7.70;98.40;;;;;;5048090;28;20968;-57
2022/02/22 11:22:56;;;;;;;7.17;3.47;;;7.70;98.50;;;;;;5049808;28;20244;-56
2022/02/22 11:25:31;;;;;;;5.97;3.70;;;7.90;97.70;;;;;;5062307;28;20416;-59
2022/02/22 11:28:00;;;;;;;10.53;3.90;;;8.20;97.50;;;;;;5051487;28;20455;-57
2022/02/22 11:30:30;;;;;;;7.73;3.67;;;8.70;96.10;;;;;;5056733;28;20423;-57
2022/02/22 11:32:58;;;;;;;10.10;3.40;;;8.70;95.40;;;;;;5052040;28;20823;-57
2022/02/22 11:35:25;;;;;;;5.23;3.37;;;8.50;94.10;;;;;;5059670;28;21096;-55
2022/02/22 11:38:07;;;;;;;7.07;4.10;;;8.30;93.70;;;;;;5051711;28;20482;-57
2022/02/22 11:40:33;;;;;;;6.83;3.77;;;8.20;93.70;;;;;;5050960;28;20540;-58
2022/02/22 11:43:14;;;;;;;7.70;4.00;;;8.40;94.00;;;;;;5065609;28;20477;-55
2022/02/22 11:45:42;;;;;;;6.63;3.93;;;8.60;94.10;;;;;;5050021;28;20826;-56
2022/02/22 11:48:25;;;;;;;5.37;4.17;;;8.90;91.00;;;;;;5064629;28;20463;-58
2022/02/22 11:50:53;;;;;;;8.07;4.10;;;9.10;90.90;;;;;;5067672;28;20436;-56
2022/02/22 11:53:27;;;;;;;6.93;3.40;;;9.10;91.10;;;;;;5066543;28;20555;-58
2022/02/22 11:55:55;;;;;;;7.37;4.30;;;8.80;90.20;;;;;;5046468;28;20416;-63
2022/02/22 11:58:30;;;;;;;5.37;4.20;;;8.70;91.50;;;;;;5049170;28;20440;-58
2022/02/22 12:01:00;;;;;;;9.17;5.37;;;8.40;91.20;;;;;;5053156;28;20416;-54
2022/02/22 12:03:27;;;;;;;4.50;3.33;;;8.40;91.10;;;;;;5050484;28;20415;-58
2022/02/22 12:06:01;;;;;;;6.43;4.20;;;8.60;91.30;;;;;;5052901;28;20419;-55
2022/02/22 12:08:28;;;;;;;6.70;4.13;;;9.00;87.20;;;;;;5052777;28;20456;-56
2022/02/22 12:10:59;;;;;;;5.10;4.00;;;9.60;84.20;;;;;;5048824;28;20409;-55
2022/02/22 12:13:38;;;;;;;5.27;3.70;;;10.00;80.40;;;;;;5054701;28;20443;-54
2022/02/22 12:16:15;;;;;;;7.13;4.00;;;10.40;80.30;;;;;;5050636;28;20415;-57
2022/02/22 12:18:45;;;;;;;5.50;4.13;;;10.50;75.50;;;;;;5050398;28;20458;-59
2022/02/22 12:21:12;;;;;;;7.47;4.50;;;10.20;74.60;;;;;;5050379;28;20477;-55
2022/02/22 12:23:39;;;;;;;5.53;4.00;;;9.90;77.90;;;;;;5051074;28;20937;-58
2022/02/22 12:26:08;;;;;;;5.73;4.10;;;9.50;79.90;;;;;;5055819;28;20923;-56
2022/02/22 12:28:47;;;;;;;5.50;4.10;;;9.40;80.60;;;;;;5050719;28;21014;-58
2022/02/22 12:31:28;;;;;;;9.70;4.20;;;9.40;79.60;;;;;;5049574;28;20433;-54
2022/02/22 12:33:58;;;;;;;7.57;5.00;;;10.20;75.80;;;;;;5050915;28;20463;-56
2022/02/22 12:36:26;;;;;;;6.43;4.67;;;11.00;71.70;;;;;;5049481;28;20425;-54
2022/02/22 12:38:56;;;;;;;8.30;4.00;;;11.20;70.30;;;;;;5050140;28;20480;-57
2022/02/22 12:41:22;;;;;;;8.90;4.20;;;11.10;65.80;;;;;;5043928;28;20438;-53
2022/02/22 12:43:50;;;;;;;11.23;4.87;;;10.90;67.10;;;;;;5031291;28;20464;-57
2022/02/22 12:46:20;;;;;;;7.20;4.27;;;10.60;70.60;;;;;;5035085;28;20471;-56
2022/02/22 12:48:45;;;;;;;9.23;3.70;;;10.40;69.20;;;;;;5051155;28;20524;-53
2022/02/22 12:51:26;;;;;;;5.03;4.53;;;10.10;67.20;;;;;;5049689;28;20519;-56
2022/02/22 12:54:07;;;;;;;5.20;4.10;;;9.80;70.20;;;;;;5051229;28;20214;-57